Chicago Midway International Airport
KMDW : now visible

Airfield :











YOU CAN JOIN US ON...

 
LOGIN :

Register | Disclaimer

   EN    FR    IT 

 









Legend :    VFR   Marginal VFR   IFR   Intensive IFR   Very Intensive IFR
Visi :
Ceiling :
>= 8 km
>= 3000ft
5 to 8 km
1000 to 3000 ft
1500m to 5 km
500 to 1000 ft
800 to 1500m
200 to 500 ft
< 800m
< 200 ft
Symbols :   Thunderstorms  Fog  Heavy snow  Heavy precipitations  Wind > 20 kt







- Airport Elevation : 620 ft
- IATA code : MDW


KMDW - Chicago Midway International

CURRENT METAR :
  • 210553Z 26016G28KT 10SM OVC037 01/M04 A2991 RMK AO2 PK WND 25032/0534 SLP140 4/001 60000 T00111044 10017 20011 400281017 51028

EXPIRED METARs :
  • 210453Z 25014G25KT 10SM OVC036 02/M03 A2989 RMK AO2 SLP131 T00171033
  • 210415Z 25018G25KT 10SM BKN026 OVC031 02/M02 A2987 RMK AO2 T00171022
  • 210353Z 25012G23KT 10SM FEW025 OVC031 02/M02 A2986 RMK AO2 PK WND 27030/0304 SLP122 T00171017

TAF KMDW
Valid from the 21 at 06:00 until the 22 at 12:00 UTC


210535Z 2106/2212 25015G24KT P6SM SCT025 OVC035
FM210800 25012G18KT P6SM SCT025 BKN250
FM211200 26011KT P6SM SCT025 BKN250
FM220000 30006KT P6SM SCT250
FM220900 03004KT P6SM SCT120
KZAU FIR / North America



MET'MAP, your aeronautical weather chart ! - Copyright ORBIFLY December 2007 - Disclaimer

ORBIFLY MET'MAP TEAM :

Programming & Development : Alexandra Zaïnal
Concept & Development : Baudouin d'Aumeries
Co-Development & Prog : Marc-Olivier Méhu
Technical & hardware support : Manuel Goepfert

Contact : metmap@orbifly.com




SOURCES & CREDITS :

   NOAA       Earth
Advisory